Time;durP1;ratioP1;P1;durP2;ratioP2;P2;SDS_P1;SDS_P2;PMS_P1;PMS_P2;Temp;Humidity;BMP_temperature;BMP_pressure;BME280_temperature;BME280_humidity;BME280_pressure;Samples;Min_cycle;Max_cycle;Signal;HPM_P1;HPM_P2
2021/12/31 00:01:28;;;;;;;;;;;;;;;9.31;59.69;100199.91;4410011;32;20009;-92
2021/12/31 00:03:55;;;;;;;;;;;;;;;9.33;59.69;100205.94;4409482;32;20069;-93
2021/12/31 00:06:20;;;;;;;;;;;;;;;9.34;59.70;100210.22;4410246;32;20333;-92
2021/12/31 00:08:46;;;;;;;;;;;;;;;9.29;59.70;100217.28;4422144;32;20001;-90
2021/12/31 00:11:11;;;;;;;;;;;;;;;9.34;59.70;100223.22;4421759;32;20279;-90
2021/12/31 00:13:36;;;;;;;;;;;;;;;9.36;59.70;100218.84;4421556;32;20004;-90
2021/12/31 00:16:02;;;;;;;;;;;;;;;9.31;59.69;100222.44;4421683;32;20005;-90
2021/12/31 00:18:27;;;;;;;;;;;;;;;9.12;59.69;100222.78;4420888;32;19994;-89
2021/12/31 00:20:52;;;;;;;;;;;;;;;9.20;59.69;100222.63;4421182;32;20033;-90
2021/12/31 00:23:23;;;;;;;;;;;;;;;9.31;59.69;100217.22;4421170;32;20005;-90
2021/12/31 00:25:48;;;;;;;;;;;;;;;9.23;59.69;100215.66;4409041;32;20001;-89
2021/12/31 00:28:13;;;;;;;;;;;;;;;9.19;59.68;100213.13;4408154;32;20029;-89
2021/12/31 00:30:58;;;;;;;;;;;;;;;9.30;59.70;100208.59;4421181;32;20024;-89
2021/12/31 00:33:23;;;;;;;;;;;;;;;9.40;59.69;100201.47;4422518;32;20038;-89
2021/12/31 00:35:49;;;;;;;;;;;;;;;9.22;59.69;100200.06;4408582;32;20048;-89
2021/12/31 00:38:14;;;;;;;;;;;;;;;9.33;59.69;100198.12;4408711;32;20516;-90
2021/12/31 00:40:39;;;;;;;;;;;;;;;9.40;59.70;100193.66;4421596;32;20048;-90
2021/12/31 00:43:06;;;;;;;;;;;;;;;9.41;59.69;100206.63;4408674;32;20019;-89
2021/12/31 00:45:34;;;;;;;;;;;;;;;9.41;59.70;100206.63;4422731;32;20006;-89
2021/12/31 00:47:59;;;;;;;;;;;;;;;9.46;59.70;100198.72;4422768;32;19990;-89
2021/12/31 00:50:24;;;;;;;;;;;;;;;9.31;59.69;100209.44;4422286;32;20004;-90
2021/12/31 00:52:50;;;;;;;;;;;;;;;9.52;59.71;100211.62;4408569;32;20001;-89
2021/12/31 00:55:15;;;;;;;;;;;;;;;9.30;59.70;100216.37;4420996;32;20014;-89
2021/12/31 00:57:40;;;;;;;;;;;;;;;9.22;59.69;100215.66;4421806;32;20002;-92
2021/12/31 01:00:06;;;;;;;;;;;;;;;9.21;59.69;100221.72;4409156;32;20002;-90
2021/12/31 01:02:32;;;;;;;;;;;;;;;9.46;59.70;100217.81;4408898;32;19985;-91
2021/12/31 01:04:57;;;;;;;;;;;;;;;9.39;59.69;100215.34;4421455;32;20096;-90
2021/12/31 01:07:22;;;;;;;;;;;;;;;9.36;59.70;100212.81;4421309;32;20043;-92
2021/12/31 01:09:48;;;;;;;;;;;;;;;9.49;59.71;100217.72;4421633;32;20024;-91
2021/12/31 01:12:14;;;;;;;;;;;;;;;9.46;59.70;100214.31;4421580;32;20330;-90
2021/12/31 01:14:52;;;;;;;;;;;;;;;9.48;59.70;100222.97;4421323;32;19992;-91
2021/12/31 01:17:23;;;;;;;;;;;;;;;9.45;59.70;100220.41;4409849;32;20286;-91
2021/12/31 01:19:49;;;;;;;;;;;;;;;9.38;59.70;100230.06;4420229;32;19986;-90
2021/12/31 01:22:15;;;;;;;;;;;;;;;9.47;59.70;100218.66;4421273;32;20428;-89
2021/12/31 01:24:40;;;;;;;;;;;;;;;9.40;59.69;100222.25;4422305;32;19973;-90
2021/12/31 01:27:05;;;;;;;;;;;;;;;9.37;59.70;100224.91;4408064;32;20005;-90
2021/12/31 01:29:30;;;;;;;;;;;;;;;9.42;59.71;100217.88;4407665;32;20002;-90
2021/12/31 01:31:55;;;;;;;;;;;;;;;9.43;59.70;100229.97;4408197;32;19981;-90
2021/12/31 01:34:24;;;;;;;;;;;;;;;9.56;59.70;100228.00;4408390;32;20318;-90
2021/12/31 01:36:49;;;;;;;;;;;;;;;9.49;59.71;100224.69;4408612;32;20666;-90
2021/12/31 01:39:14;;;;;;;;;;;;;;;9.36;59.70;100220.59;4407437;32;31942;-89
2021/12/31 01:41:40;;;;;;;;;;;;;;;9.38;59.70;100219.69;4407516;32;26099;-90
2021/12/31 01:44:06;;;;;;;;;;;;;;;9.43;59.71;100219.56;4420738;32;19982;-90
2021/12/31 01:46:31;;;;;;;;;;;;;;;9.53;59.70;100218.53;4420766;32;20052;-89
2021/12/31 01:51:21;;;;;;;;;;;;;;;9.60;59.71;100227.03;4420565;32;20001;-89
2021/12/31 01:53:47;;;;;;;;;;;;;;;9.64;59.71;100221.75;4420566;32;20338;-89
2021/12/31 01:56:12;;;;;;;;;;;;;;;9.64;59.72;100216.53;4407468;32;20013;-88
2021/12/31 01:58:37;;;;;;;;;;;;;;;9.68;59.72;100217.34;4419936;32;20311;-88
2021/12/31 02:01:04;;;;;;;;;;;;;;;9.72;59.72;100222.47;4420082;32;20262;-89
2021/12/31 02:03:29;;;;;;;;;;;;;;;9.77;59.71;100224.97;4420366;32;19973;-88
2021/12/31 02:05:55;;;;;;;;;;;;;;;9.84;59.72;100217.00;4407247;32;19989;-88
2021/12/31 02:08:20;;;;;;;;;;;;;;;9.68;59.72;100212.12;4420319;32;20036;-88
2021/12/31 02:10:48;;;;;;;;;;;;;;;9.73;59.72;100224.19;4421667;32;20020;-87
2021/12/31 02:13:13;;;;;;;;;;;;;;;9.85;59.72;100225.62;4420097;32;20370;-88
2021/12/31 02:15:38;;;;;;;;;;;;;;;9.85;59.72;100226.50;4420123;32;20024;-88
2021/12/31 02:18:08;;;;;;;;;;;;;;;10.00;59.73;100229.66;4419552;32;23104;-88
2021/12/31 02:20:40;;;;;;;;;;;;;;;9.99;59.73;100220.16;4420196;32;20025;-88
2021/12/31 02:23:08;;;;;;;;;;;;;;;10.10;59.74;100212.94;4420147;32;20008;-88
2021/12/31 02:25:35;;;;;;;;;;;;;;;10.06;59.74;100213.91;4420074;32;19989;-88
2021/12/31 02:28:00;;;;;;;;;;;;;;;10.07;59.73;100213.87;4420109;32;20554;-88
2021/12/31 02:30:27;;;;;;;;;;;;;;;9.98;59.73;100208.03;4420677;32;20021;-89
2021/12/31 02:32:53;;;;;;;;;;;;;;;10.10;59.74;100207.75;4409864;32;20017;-88
2021/12/31 02:35:18;;;;;;;;;;;;;;;10.03;59.74;100203.59;4422337;32;20040;-88
2021/12/31 02:37:43;;;;;;;;;;;;;;;10.00;59.73;100206.25;4409628;32;20008;-88
2021/12/31 02:40:09;;;;;;;;;;;;;;;10.00;59.73;100201.91;4409379;32;19990;-88
2021/12/31 02:42:35;;;;;;;;;;;;;;;9.86;59.72;100193.56;4409578;32;20314;-89
2021/12/31 02:45:00;;;;;;;;;;;;;;;9.82;59.72;100192.78;4422244;32;19993;-89
2021/12/31 02:47:25;;;;;;;;;;;;;;;9.83;59.72;100194.47;4423728;32;19997;-89
2021/12/31 02:49:51;;;;;;;;;;;;;;;9.94;59.72;100198.59;4422360;32;19996;-89
2021/12/31 02:52:16;;;;;;;;;;;;;;;10.02;59.74;100184.53;4423614;32;19996;-89
2021/12/31 02:54:43;;;;;;;;;;;;;;;9.81;59.73;100182.41;4422113;32;20008;-89
2021/12/31 02:57:09;;;;;;;;;;;;;;;10.01;59.73;100182.81;4409321;32;20043;-89
2021/12/31 02:59:34;;;;;;;;;;;;;;;9.86;59.72;100185.75;4409527;32;20382;-91
2021/12/31 03:01:59;;;;;;;;;;;;;;;10.03;59.74;100169.78;4409946;32;20598;-92
2021/12/31 03:04:25;;;;;;;;;;;;;;;9.85;59.72;100171.03;4423680;32;19985;-91
2021/12/31 03:06:50;;;;;;;;;;;;;;;9.66;59.72;100174.94;4410169;32;20013;-91
2021/12/31 03:09:16;;;;;;;;;;;;;;;9.60;59.71;100183.72;4423024;32;20103;-92
2021/12/31 03:11:42;;;;;;;;;;;;;;;9.64;59.71;100187.09;4386810;32;811879;-92
2021/12/31 03:14:07;;;;;;;;;;;;;;;9.81;59.73;100182.41;4422389;32;20443;-91
2021/12/31 03:16:32;;;;;;;;;;;;;;;9.77;59.72;100185.97;4422321;32;20013;-91
2021/12/31 03:18:58;;;;;;;;;;;;;;;9.67;59.72;100182.69;4409594;32;20351;-92
2021/12/31 03:21:23;;;;;;;;;;;;;;;9.66;59.71;100182.72;4409205;32;20011;-90
2021/12/31 03:23:52;;;;;;;;;;;;;;;9.37;59.70;100178.12;4422374;32;20012;-91
2021/12/31 03:26:17;;;;;;;;;;;;;;;9.36;59.70;100184.22;4409559;32;20012;-90
2021/12/31 03:28:43;;;;;;;;;;;;;;;9.27;59.70;100169.69;4409176;32;19994;-89
2021/12/31 03:31:08;;;;;;;;;;;;;;;9.21;59.69;100181.03;4422080;32;19993;-90
2021/12/31 03:33:33;;;;;;;;;;;;;;;9.33;59.69;100173.91;4409068;32;20018;-90
2021/12/31 03:35:59;;;;;;;;;;;;;;;9.25;59.68;100179.25;4421899;32;20013;-90
2021/12/31 03:38:24;;;;;;;;;;;;;;;9.26;59.68;100169.72;4421885;32;20017;-90
2021/12/31 03:40:50;;;;;;;;;;;;;;;9.16;59.69;100175.06;4421945;32;19998;-90
2021/12/31 03:43:15;;;;;;;;;;;;;;;9.18;59.68;100173.31;4421310;32;20236;-90
2021/12/31 03:45:40;;;;;;;;;;;;;;;9.21;59.69;100172.37;4409039;32;20115;-91
2021/12/31 03:48:05;;;;;;;;;;;;;;;9.16;59.68;100171.63;4409237;32;20050;-89
2021/12/31 03:50:31;;;;;;;;;;;;;;;9.06;59.68;100167.50;4422247;32;20337;-90
2021/12/31 03:52:56;;;;;;;;;;;;;;;9.06;59.68;100170.09;4408935;32;20005;-90
2021/12/31 03:55:21;;;;;;;;;;;;;;;9.04;59.68;100174.47;4408978;32;19981;-90
2021/12/31 03:57:46;;;;;;;;;;;;;;;9.05;59.68;100179.63;4409119;32;20330;-91
2021/12/31 04:00:12;;;;;;;;;;;;;;;9.02;59.68;100181.44;4421396;32;21909;-90
2021/12/31 04:02:37;;;;;;;;;;;;;;;8.96;59.67;100178.94;4421922;32;20029;-89
2021/12/31 04:05:03;;;;;;;;;;;;;;;9.02;59.67;100179.69;4409135;32;20357;-90
2021/12/31 04:07:28;;;;;;;;;;;;;;;9.12;59.69;100181.22;4408808;32;20004;-90
2021/12/31 04:09:53;;;;;;;;;;;;;;;9.18;59.68;100180.25;4408847;32;20008;-90
2021/12/31 04:12:18;;;;;;;;;;;;;;;9.25;59.69;100184.44;4408838;32;20327;-90
2021/12/31 04:14:53;;;;;;;;;;;;;;;9.22;59.69;100179.28;4421249;32;20076;-88
2021/12/31 04:17:18;;;;;;;;;;;;;;;9.22;59.69;100181.88;4409197;32;19970;-89
2021/12/31 04:19:43;;;;;;;;;;;;;;;9.20;59.69;100176.72;4421681;32;20270;-89
2021/12/31 04:22:12;;;;;;;;;;;;;;;9.24;59.69;100172.34;4421943;32;20009;-89
2021/12/31 04:27:08;;;;;;;;;;;;;;;9.29;59.70;100173.09;4421702;32;20315;-90
2021/12/31 04:29:33;;;;;;;;;;;;;;;9.33;59.69;100177.34;4421572;32;19998;-89
2021/12/31 04:32:00;;;;;;;;;;;;;;;9.34;59.70;100166.06;4408734;32;20029;-89
2021/12/31 04:34:26;;;;;;;;;;;;;;;9.31;59.69;100173.06;4408851;32;20381;-89
2021/12/31 04:36:51;;;;;;;;;;;;;;;9.27;59.70;100176.63;4408627;32;20040;-89
2021/12/31 04:39:16;;;;;;;;;;;;;;;9.34;59.70;100178.19;4421318;32;20350;-89
2021/12/31 04:41:41;;;;;;;;;;;;;;;9.05;59.68;100173.59;4421012;32;21590;-89
2021/12/31 04:44:06;;;;;;;;;;;;;;;9.15;59.69;100182.91;4408654;32;20012;-89
2021/12/31 04:46:32;;;;;;;;;;;;;;;9.38;59.70;100182.44;4408223;32;25089;-89
2021/12/31 04:48:57;;;;;;;;;;;;;;;9.34;59.70;100184.25;4408774;32;19990;-89
2021/12/31 04:51:22;;;;;;;;;;;;;;;9.31;59.69;100189.50;4421688;32;20010;-91
2021/12/31 04:53:48;;;;;;;;;;;;;;;9.47;59.70;100179.69;4408676;32;19994;-91
2021/12/31 04:56:13;;;;;;;;;;;;;;;9.52;59.71;100181.28;4421578;32;19993;-90
2021/12/31 04:58:38;;;;;;;;;;;;;;;9.58;59.71;100182.03;4409190;32;19981;-90
2021/12/31 05:01:03;;;;;;;;;;;;;;;9.65;59.71;100178.41;4408974;32;20325;-90
2021/12/31 05:03:29;;;;;;;;;;;;;;;9.74;59.72;100178.25;4409042;32;20278;-91
2021/12/31 05:05:54;;;;;;;;;;;;;;;9.69;59.71;100180.91;4408794;32;20039;-91
2021/12/31 05:08:19;;;;;;;;;;;;;;;9.84;59.72;100177.13;4408601;32;20012;-90
2021/12/31 05:10:44;;;;;;;;;;;;;;;9.94;59.73;100191.66;4421946;32;20046;-91
2021/12/31 05:13:14;;;;;;;;;;;;;;;9.95;59.73;100182.97;4408909;32;20766;-90
2021/12/31 05:15:45;;;;;;;;;;;;;;;9.78;59.72;100188.53;4421942;32;19985;-88
2021/12/31 05:18:10;;;;;;;;;;;;;;;9.78;59.72;100196.31;4409639;32;19986;-91
2021/12/31 05:20:35;;;;;;;;;;;;;;;9.63;59.70;100190.59;4408823;32;19990;-90
2021/12/31 05:23:01;;;;;;;;;;;;;;;9.57;59.71;100191.59;4408843;32;20037;-90
2021/12/31 05:25:26;;;;;;;;;;;;;;;9.58;59.71;100187.25;4408649;32;19978;-91
2021/12/31 05:27:51;;;;;;;;;;;;;;;9.46;59.70;100197.00;4421446;32;20015;-90
2021/12/31 05:30:18;;;;;;;;;;;;;;;9.39;59.70;100192.81;4408449;32;20029;-90
2021/12/31 05:32:43;;;;;;;;;;;;;;;9.27;59.70;100197.41;4421723;32;20016;-91
2021/12/31 05:35:09;;;;;;;;;;;;;;;9.01;59.68;100201.34;4408888;32;20330;-91
2021/12/31 05:37:34;;;;;;;;;;;;;;;9.04;59.68;100192.66;4421221;32;20017;-90
2021/12/31 05:39:59;;;;;;;;;;;;;;;9.00;59.68;100198.78;4420792;32;20002;-90
2021/12/31 05:42:24;;;;;;;;;;;;;;;9.14;59.69;100196.78;4407774;32;21091;-88
2021/12/31 05:44:50;;;;;;;;;;;;;;;8.76;59.67;100208.72;4408284;32;20009;-89
2021/12/31 05:47:15;;;;;;;;;;;;;;;8.56;59.65;100205.59;4408112;32;20314;-89
2021/12/31 05:49:40;;;;;;;;;;;;;;;8.55;59.65;100214.28;4407886;32;20019;-88
2021/12/31 05:52:06;;;;;;;;;;;;;;;8.67;59.66;100206.25;4420707;32;20278;-88
2021/12/31 05:54:31;;;;;;;;;;;;;;;8.81;59.66;100214.69;4420700;32;19981;-89
2021/12/31 05:56:56;;;;;;;;;;;;;;;8.62;59.66;100213.28;4408094;32;19997;-90
2021/12/31 05:59:22;;;;;;;;;;;;;;;8.72;59.66;100209.63;4408386;32;19993;-89
2021/12/31 06:01:47;;;;;;;;;;;;;;;8.51;59.66;100210.84;4407905;32;19997;-89
2021/12/31 06:04:12;;;;;;;;;;;;;;;8.53;59.66;100226.41;4420387;32;20327;-89
2021/12/31 06:06:37;;;;;;;;;;;;;;;8.76;59.67;100223.44;4409714;32;20234;-88
2021/12/31 06:09:03;;;;;;;;;;;;;;;8.82;59.67;100226.78;4422983;32;20028;-89
2021/12/31 06:11:28;;;;;;;;;;;;;;;9.08;59.68;100226.31;4409925;32;20020;-88
2021/12/31 06:14:01;;;;;;;;;;;;;;;9.26;59.69;100224.28;4409715;32;20008;-90
2021/12/31 06:16:27;;;;;;;;;;;;;;;9.38;59.69;100216.22;4410575;32;20262;-89
2021/12/31 06:18:52;;;;;;;;;;;;;;;9.36;59.70;100215.41;4409847;32;20039;-88
2021/12/31 06:21:17;;;;;;;;;;;;;;;9.51;59.70;100220.31;4409100;32;29443;-90
2021/12/31 06:23:43;;;;;;;;;;;;;;;9.61;59.71;100219.22;4422829;32;19994;-90
2021/12/31 06:26:09;;;;;;;;;;;;;;;9.57;59.70;100229.72;4409789;32;19970;-90
2021/12/31 06:28:35;;;;;;;;;;;;;;;9.57;59.70;100232.31;4409855;32;19990;-89
2021/12/31 06:31:00;;;;;;;;;;;;;;;9.48;59.70;100220.37;4422841;32;20571;-91
2021/12/31 06:33:25;;;;;;;;;;;;;;;9.43;59.70;100228.22;4422836;32;20228;-91
2021/12/31 06:35:50;;;;;;;;;;;;;;;9.39;59.70;100223.13;4422828;32;19974;-91
2021/12/31 06:38:17;;;;;;;;;;;;;;;9.29;59.70;100232.00;4409939;32;20013;-91
2021/12/31 06:40:43;;;;;;;;;;;;;;;9.12;59.69;100240.09;4422512;32;19993;-91
2021/12/31 06:43:08;;;;;;;;;;;;;;;9.21;59.69;100237.31;4409911;32;20001;-91
2021/12/31 06:45:33;;;;;;;;;;;;;;;8.95;59.67;100234.34;4410186;32;19994;-92
2021/12/31 06:47:58;;;;;;;;;;;;;;;9.06;59.68;100243.66;4410521;32;20450;-92
2021/12/31 06:50:24;;;;;;;;;;;;;;;8.97;59.67;100242.94;4409819;32;20004;-91
2021/12/31 06:52:49;;;;;;;;;;;;;;;9.00;59.67;100242.94;4422608;32;19992;-91
2021/12/31 06:55:14;;;;;;;;;;;;;;;9.09;59.68;100237.56;4410393;32;20017;-93
2021/12/31 06:57:40;;;;;;;;;;;;;;;9.13;59.69;100244.41;4423866;32;20020;-91
2021/12/31 07:00:06;;;;;;;;;;;;;;;9.03;59.67;100248.06;4411068;32;20009;-93
2021/12/31 07:02:31;;;;;;;;;;;;;;;8.87;59.67;100244.88;4410827;32;20029;-90
2021/12/31 07:04:56;;;;;;;;;;;;;;;8.84;59.68;100248.38;4410372;32;19988;-91
2021/12/31 07:07:22;;;;;;;;;;;;;;;8.71;59.66;100257.22;4410112;32;20057;-91
2021/12/31 07:09:47;;;;;;;;;;;;;;;8.67;59.66;100258.16;4409990;32;19986;-92
2021/12/31 07:12:12;;;;;;;;;;;;;;;9.00;59.68;100258.50;4422735;32;20306;-91
2021/12/31 07:14:37;;;;;;;;;;;;;;;9.00;59.68;100261.97;4410079;32;19993;-91
2021/12/31 07:17:03;;;;;;;;;;;;;;;9.15;59.69;100266.88;4408783;32;20031;-91
2021/12/31 07:19:28;;;;;;;;;;;;;;;9.11;59.68;100272.16;4410008;32;20024;-92
2021/12/31 07:21:53;;;;;;;;;;;;;;;9.34;59.70;100271.72;4423253;32;19982;-90
2021/12/31 07:24:18;;;;;;;;;;;;;;;9.45;59.70;100274.97;4422223;32;19990;-91
2021/12/31 07:26:44;;;;;;;;;;;;;;;9.41;59.70;100278.50;4422957;32;19989;-91
2021/12/31 07:29:09;;;;;;;;;;;;;;;9.69;59.72;100268.44;4409235;32;20001;-92
2021/12/31 07:31:34;;;;;;;;;;;;;;;9.64;59.71;100275.47;4410076;32;20027;-92
2021/12/31 07:34:02;;;;;;;;;;;;;;;9.78;59.72;100278.66;4413489;32;19969;-96
2021/12/31 07:36:29;;;;;;;;;;;;;;;9.90;59.73;100270.59;4425046;32;19990;-96
2021/12/31 07:39:04;;;;;;;;;;;;;;;9.98;59.73;100271.31;4431006;32;19993;-93
2021/12/31 07:41:30;;;;;;;;;;;;;;;10.16;59.73;100275.25;4423070;32;19970;-93
2021/12/31 07:43:55;;;;;;;;;;;;;;;10.31;59.75;100276.69;4422693;32;20020;-93
2021/12/31 07:46:34;;;;;;;;;;;;;;;10.45;59.76;100279.84;4423120;32;20009;-93
2021/12/31 07:49:02;;;;;;;;;;;;;;;10.49;59.76;100281.47;4423582;32;20024;-93
2021/12/31 07:51:27;;;;;;;;;;;;;;;10.62;59.76;100271.63;4423277;32;19978;-93
2021/12/31 07:53:55;;;;;;;;;;;;;;;10.63;59.77;100274.19;4423353;32;20011;-93
2021/12/31 07:56:21;;;;;;;;;;;;;;;10.65;59.77;100269.84;4423722;32;20029;-94
2021/12/31 07:58:49;;;;;;;;;;;;;;;10.93;59.79;100271.75;4423838;32;20010;-93
2021/12/31 08:01:16;;;;;;;;;;;;;;;11.03;59.79;100273.22;4423924;32;20002;-94
2021/12/31 08:03:45;;;;;;;;;;;;;;;10.98;59.78;100275.94;4423627;32;20008;-94
2021/12/31 08:06:12;;;;;;;;;;;;;;;11.07;59.80;100280.91;4423233;32;20049;-94
2021/12/31 08:08:38;;;;;;;;;;;;;;;11.08;59.80;100285.22;4423702;32;20236;-94
2021/12/31 08:11:03;;;;;;;;;;;;;;;11.20;59.80;100283.22;4424305;32;20011;-94
2021/12/31 08:13:28;;;;;;;;;;;;;;;11.31;59.80;100292.44;4410711;32;20074;-94
2021/12/31 08:15:53;;;;;;;;;;;;;;;11.41;59.81;100289.62;4410948;32;20005;-93
2021/12/31 08:18:19;;;;;;;;;;;;;;;11.53;59.82;100282.31;4410735;32;20507;-92
2021/12/31 08:20:44;;;;;;;;;;;;;;;11.67;59.82;100287.16;4410793;32;19989;-93
2021/12/31 08:23:09;;;;;;;;;;;;;;;11.75;59.82;100292.13;4410921;32;20028;-93
2021/12/31 08:25:38;;;;;;;;;;;;;;;11.97;59.84;100282.84;4410979;32;20096;-94
2021/12/31 08:28:03;;;;;;;;;;;;;;;12.02;59.84;100288.75;4410919;32;19997;-92
2021/12/31 08:30:29;;;;;;;;;;;;;;;12.18;59.85;100283.97;4423932;32;19974;-92
2021/12/31 08:32:54;;;;;;;;;;;;;;;12.12;59.84;100286.75;4410830;32;19982;-93
2021/12/31 08:35:19;;;;;;;;;;;;;;;12.17;59.85;100283.09;4410556;32;20018;-94
2021/12/31 08:37:44;;;;;;;;;;;;;;;12.31;59.86;100285.31;4411444;32;20329;-93
2021/12/31 08:40:10;;;;;;;;;;;;;;;12.13;59.84;100281.50;4411291;32;20034;-93
2021/12/31 08:42:35;;;;;;;;;;;;;;;12.29;59.86;100282.72;4411348;32;20000;-93
2021/12/31 08:45:00;;;;;;;;;;;;;;;12.44;59.86;100276.19;4411167;32;20039;-93
2021/12/31 08:47:26;;;;;;;;;;;;;;;12.46;59.87;100276.12;4424203;32;20038;-92
2021/12/31 08:49:51;;;;;;;;;;;;;;;12.44;59.87;100272.72;4411493;32;19997;-93
2021/12/31 08:52:16;;;;;;;;;;;;;;;12.49;59.86;100282.09;4411325;32;20020;-93
2021/12/31 08:54:41;;;;;;;;;;;;;;;12.57;59.88;100269.69;4410985;32;19998;-91
2021/12/31 08:57:07;;;;;;;;;;;;;;;12.58;59.86;100276.62;4410752;32;20334;-92
2021/12/31 08:59:32;;;;;;;;;;;;;;;12.73;59.88;100279.62;4423278;32;20013;-93
2021/12/31 09:01:58;;;;;;;;;;;;;;;12.81;59.88;100269.78;4409805;32;20054;-93
2021/12/31 09:04:23;;;;;;;;;;;;;;;12.93;59.89;100261.53;4410495;32;20038;-94
2021/12/31 09:06:48;;;;;;;;;;;;;;;12.97;59.89;100268.38;4410089;32;20027;-93
2021/12/31 09:09:13;;;;;;;;;;;;;;;13.15;59.90;100259.91;4410472;32;19982;-93
2021/12/31 09:11:39;;;;;;;;;;;;;;;13.38;59.91;100260.91;4410625;32;19966;-93
2021/12/31 09:14:04;;;;;;;;;;;;;;;13.36;59.91;100254.88;4410584;32;20378;-93
2021/12/31 09:16:29;;;;;;;;;;;;;;;13.43;59.92;100265.06;4410902;32;20333;-92
2021/12/31 09:18:55;;;;;;;;;;;;;;;13.39;59.92;100258.22;4410636;32;20035;-93
2021/12/31 09:21:22;;;;;;;;;;;;;;;13.50;59.92;100258.72;4410449;32;20301;-93
2021/12/31 09:23:47;;;;;;;;;;;;;;;13.42;59.92;100255.50;4410290;32;20002;-92
2021/12/31 09:26:12;;;;;;;;;;;;;;;13.46;59.92;100262.31;4409918;32;20228;-93
2021/12/31 09:28:37;;;;;;;;;;;;;;;13.77;59.93;100262.09;4409925;32;20000;-94
2021/12/31 09:31:05;;;;;;;;;;;;;;;13.86;59.93;100262.66;4410510;32;19993;-94
2021/12/31 09:33:30;;;;;;;;;;;;;;;13.75;59.93;100261.28;4422809;32;20589;-92
2021/12/31 09:35:56;;;;;;;;;;;;;;;14.02;59.94;100254.16;4409888;32;20000;-91
2021/12/31 09:38:21;;;;;;;;;;;;;;;13.92;59.94;100250.19;4409811;32;20011;-93
2021/12/31 09:40:46;;;;;;;;;;;;;;;14.19;59.96;100242.19;4408579;32;20064;-93
2021/12/31 09:43:12;;;;;;;;;;;;;;;14.38;59.96;100251.88;4409763;32;20109;-93
2021/12/31 09:45:38;;;;;;;;;;;;;;;14.34;59.97;100244.19;4409839;32;20025;-93
2021/12/31 09:48:09;;;;;;;;;;;;;;;14.60;59.98;100241.44;4409612;32;20679;-94
2021/12/31 09:50:39;;;;;;;;;;;;;;;14.68;59.98;100244.59;4409654;32;19977;-93
2021/12/31 09:53:04;;;;;;;;;;;;;;;14.75;59.98;100242.56;4409525;32;19990;-94
2021/12/31 09:55:44;;;;;;;;;;;;;;;14.78;59.98;100252.06;4418282;32;20036;-96
2021/12/31 09:58:09;;;;;;;;;;;;;;;14.65;59.98;100259.56;4410548;32;19970;-96
2021/12/31 10:00:41;;;;;;;;;;;;;;;14.70;59.98;100261.13;4409628;32;20044;-94
2021/12/31 10:03:09;;;;;;;;;;;;;;;14.99;60.00;100252.03;4407989;32;20011;-92
2021/12/31 10:05:39;;;;;;;;;;;;;;;15.13;60.00;100256.69;4408780;32;19998;-94
2021/12/31 10:08:11;;;;;;;;;;;;;;;15.39;60.01;100244.25;4415008;32;19986;-95
2021/12/31 10:10:57;;;;;;;;;;;;;;;15.28;60.01;100239.44;4410553;32;20775;-96
2021/12/31 10:13:25;;;;;;;;;;;;;;;15.55;60.04;100232.12;4415492;32;19963;-96
2021/12/31 10:15:53;;;;;;;;;;;;;;;15.65;60.03;100225.59;4415259;32;20651;-96
2021/12/31 10:18:19;;;;;;;;;;;;;;;15.66;60.04;100232.53;4408300;32;20342;-91
2021/12/31 10:20:51;;;;;;;;;;;;;;;15.56;60.03;100229.44;4407186;32;19982;-96
2021/12/31 10:26:08;;;;;;;;;;;;;;;15.70;60.04;100225.38;4407251;32;20005;-95
2021/12/31 10:28:33;;;;;;;;;;;;;;;15.46;60.02;100230.78;4411054;32;20041;-92
2021/12/31 10:31:11;;;;;;;;;;;;;;;15.37;60.02;100228.53;4399395;32;19978;-94
2021/12/31 10:33:43;;;;;;;;;;;;;;;15.35;60.02;100219.87;4411894;32;20005;-95
2021/12/31 10:36:09;;;;;;;;;;;;;;;15.45;60.02;100228.22;4411772;32;20001;-94
2021/12/31 10:38:39;;;;;;;;;;;;;;;15.49;60.03;100225.38;4398483;32;19970;-95
2021/12/31 10:41:05;;;;;;;;;;;;;;;15.54;60.02;100219.94;4399325;32;20008;-94
2021/12/31 10:43:30;;;;;;;;;;;;;;;15.69;60.03;100218.44;4410718;32;19977;-94
2021/12/31 10:46:09;;;;;;;;;;;;;;;15.84;60.04;100221.19;4400744;32;20290;-95
2021/12/31 10:48:37;;;;;;;;;;;;;;;15.91;60.04;100214.75;4401867;32;19946;-95
2021/12/31 10:51:03;;;;;;;;;;;;;;;15.81;60.04;100223.94;4413179;32;19978;-95
2021/12/31 10:53:36;;;;;;;;;;;;;;;15.81;60.04;100226.56;4418929;32;20024;-94
2021/12/31 10:56:13;;;;;;;;;;;;;;;15.94;60.05;100232.97;4411882;32;19990;-95
2021/12/31 10:58:43;;;;;;;;;;;;;;;16.00;60.05;100223.97;4422576;32;19973;-95
2021/12/31 11:01:12;;;;;;;;;;;;;;;15.80;60.04;100235.38;4436063;32;19950;-95
2021/12/31 11:03:41;;;;;;;;;;;;;;;16.00;60.05;100236.22;4423236;32;19977;-96
2021/12/31 11:06:07;;;;;;;;;;;;;;;16.11;60.06;100226.94;4435795;32;19958;-96
2021/12/31 11:08:37;;;;;;;;;;;;;;;16.25;60.07;100221.88;4423161;32;20049;-96
2021/12/31 11:11:04;;;;;;;;;;;;;;;16.38;60.07;100221.31;4436311;32;19973;-96
2021/12/31 11:13:31;;;;;;;;;;;;;;;16.52;60.08;100216.22;4425408;32;19966;-95
2021/12/31 11:16:03;;;;;;;;;;;;;;;16.69;60.08;100204.91;4436839;32;19994;-96
2021/12/31 11:18:29;;;;;;;;;;;;;;;16.67;60.08;100215.50;4423695;32;19985;-96
2021/12/31 11:21:03;;;;;;;;;;;;;;;16.95;60.10;100211.47;4436730;32;19949;-95
2021/12/31 11:26:33;;;;;;;;;;;;;;;17.06;60.11;100203.91;4449436;32;20622;-96
2021/12/31 11:29:04;;;;;;;;;;;;;;;17.08;60.10;100212.56;4423633;32;19981;-96
2021/12/31 11:31:29;;;;;;;;;;;;;;;16.96;60.11;100207.91;4421484;32;20020;-96
2021/12/31 11:33:58;;;;;;;;;;;;;;;17.07;60.10;100208.22;4419986;32;20562;-96
2021/12/31 11:36:59;;;;;;;;;;;;;;;17.06;60.11;100203.91;4432386;32;19961;-96
2021/12/31 11:39:25;;;;;;;;;;;;;;;17.08;60.10;100208.16;4445819;32;19954;-96
2021/12/31 11:44:57;;;;;;;;;;;;;;;17.12;60.11;100204.44;4445696;32;20001;-96
2021/12/31 11:47:28;;;;;;;;;;;;;;;17.15;60.11;100203.41;4430639;32;20043;-96
2021/12/31 11:50:04;;;;;;;;;;;;;;;17.12;60.11;100196.53;4416483;32;20048;-96
2021/12/31 11:52:30;;;;;;;;;;;;;;;16.98;60.10;100212.16;4417880;32;19945;-96
2021/12/31 11:55:14;;;;;;;;;;;;;;;17.04;60.11;100198.72;4419917;32;20001;-94
2021/12/31 11:57:42;;;;;;;;;;;;;;;16.93;60.09;100206.28;4452820;32;20048;-96
2021/12/31 12:00:23;;;;;;;;;;;;;;;16.78;60.09;100209.69;4440221;32;19991;-96
2021/12/31 12:02:50;;;;;;;;;;;;;;;16.75;60.09;100200.19;4449518;32;19960;-92
2021/12/31 12:05:15;;;;;;;;;;;;;;;16.60;60.09;100197.44;4416131;32;20025;-95
2021/12/31 12:07:42;;;;;;;;;;;;;;;16.60;60.08;100192.19;4415907;32;19997;-95
2021/12/31 12:10:08;;;;;;;;;;;;;;;16.56;60.08;100194.97;4415059;32;20690;-96
2021/12/31 12:12:34;;;;;;;;;;;;;;;16.56;60.09;100192.34;4415028;32;19965;-96
2021/12/31 12:15:00;;;;;;;;;;;;;;;16.72;60.09;100191.59;4415090;32;20004;-96
2021/12/31 12:17:28;;;;;;;;;;;;;;;16.74;60.09;100182.72;4414861;32;19993;-96
2021/12/31 12:19:53;;;;;;;;;;;;;;;16.78;60.09;100188.66;4428161;32;19985;-96
2021/12/31 12:22:27;;;;;;;;;;;;;;;16.85;60.10;100188.28;4442680;32;19973;-96
2021/12/31 12:24:53;;;;;;;;;;;;;;;16.92;60.10;100180.09;4431050;32;19986;-96
2021/12/31 12:27:20;;;;;;;;;;;;;;;16.88;60.10;100180.25;4420740;32;20031;-96
2021/12/31 12:29:45;;;;;;;;;;;;;;;16.93;60.11;100177.38;4419988;32;19981;-96
2021/12/31 12:32:13;;;;;;;;;;;;;;;16.82;60.10;100175.31;4420165;32;19946;-96
2021/12/31 12:34:41;;;;;;;;;;;;;;;16.89;60.10;100178.47;4407713;32;20060;-96
2021/12/31 12:37:06;;;;;;;;;;;;;;;16.87;60.10;100178.53;4408371;32;20698;-96
2021/12/31 12:39:31;;;;;;;;;;;;;;;16.93;60.11;100173.88;4404814;32;19960;-90
2021/12/31 12:41:56;;;;;;;;;;;;;;;16.89;60.10;100170.56;4402134;32;19986;-89
2021/12/31 12:44:22;;;;;;;;;;;;;;;16.94;60.11;100172.97;4408586;32;20025;-89
2021/12/31 12:46:51;;;;;;;;;;;;;;;16.79;60.10;100172.81;4422535;32;19989;-89
2021/12/31 12:49:18;;;;;;;;;;;;;;;16.81;60.10;100176.22;4423514;32;19986;-96
2021/12/31 12:51:43;;;;;;;;;;;;;;;16.81;60.09;100180.63;4398110;32;20290;-95
2021/12/31 12:54:11;;;;;;;;;;;;;;;16.67;60.08;100175.22;4408196;32;20013;-90